createdAt,value
2018-09-25T00:00:07.742Z,645
2018-09-25T00:01:14.948Z,645
2018-09-25T00:02:22.151Z,646
2018-09-25T00:03:29.355Z,648
2018-09-25T00:04:36.293Z,648
2018-09-25T00:05:43.496Z,649
2018-09-25T00:06:50.702Z,649
2018-09-25T00:07:57.926Z,650
2018-09-25T00:09:05.124Z,652
2018-09-25T00:10:12.391Z,652
2018-09-25T00:11:19.681Z,652
2018-09-25T00:12:26.603Z,654
2018-09-25T00:13:33.807Z,655
2018-09-25T00:14:41.007Z,655
2018-09-25T00:15:48.215Z,657
2018-09-25T00:16:55.419Z,657
2018-09-25T00:18:02.628Z,658
2018-09-25T00:19:09.839Z,659
2018-09-25T00:20:17.048Z,660
2018-09-25T00:21:23.975Z,661
2018-09-25T00:22:30.915Z,663
2018-09-25T00:23:38.119Z,663
2018-09-25T00:24:45.325Z,665
2018-09-25T00:25:52.530Z,664
2018-09-25T00:26:59.664Z,665
2018-09-25T00:28:06.599Z,666
2018-09-25T00:29:13.267Z,666
2018-09-25T00:30:20.199Z,667
2018-09-25T00:31:27.396Z,668
2018-09-25T00:32:34.604Z,669
2018-09-25T00:33:41.807Z,670
2018-09-25T00:34:49.011Z,671
2018-09-25T00:35:56.217Z,672
2018-09-25T00:37:03.426Z,673
2018-09-25T00:38:10.631Z,674
2018-09-25T00:39:17.560Z,674
2018-09-25T00:40:24.492Z,674
2018-09-25T00:41:31.701Z,675
2018-09-25T00:42:38.911Z,677
2018-09-25T00:43:46.116Z,678
2018-09-25T00:44:53.329Z,678
2018-09-25T00:46:00.535Z,679
2018-09-25T00:47:07.275Z,680
2018-09-25T00:48:14.685Z,680
2018-09-25T00:49:21.619Z,681
2018-09-25T00:50:28.824Z,680
2018-09-25T00:51:36.032Z,681
2018-09-25T00:52:43.233Z,683
2018-09-25T00:53:50.437Z,683
2018-09-25T00:54:57.638Z,684
2018-09-25T00:56:04.844Z,686
2018-09-25T00:57:12.043Z,686
2018-09-25T00:58:19.248Z,687
2018-09-25T00:59:26.450Z,687
2018-09-25T01:00:33.652Z,687
2018-09-25T01:01:40.853Z,686
2018-09-25T01:02:47.789Z,688
2018-09-25T01:03:54.985Z,688
2018-09-25T01:05:02.187Z,689
2018-09-25T01:06:09.389Z,690
2018-09-25T01:07:16.590Z,691
2018-09-25T01:08:23.789Z,692
2018-09-25T01:09:31.000Z,692
2018-09-25T01:10:38.203Z,693
2018-09-25T01:11:45.407Z,693
2018-09-25T01:12:52.608Z,693
2018-09-25T01:13:59.816Z,695
2018-09-25T01:15:07.026Z,695
2018-09-25T01:16:14.228Z,695
2018-09-25T01:17:21.432Z,695
2018-09-25T01:18:28.637Z,695
2018-09-25T01:19:35.839Z,696
2018-09-25T01:20:43.042Z,696
2018-09-25T01:21:50.245Z,694
2018-09-25T01:22:57.447Z,694
2018-09-25T01:24:04.652Z,696
2018-09-25T01:25:11.852Z,695
2018-09-25T01:26:19.057Z,696
2018-09-25T01:27:26.262Z,696
2018-09-25T01:28:33.465Z,696
2018-09-25T01:29:40.404Z,699
2018-09-25T01:30:47.607Z,697
2018-09-25T01:31:54.812Z,698
2018-09-25T01:33:02.014Z,699
2018-09-25T01:34:09.219Z,699
2018-09-25T01:35:16.428Z,700
2018-09-25T01:36:23.630Z,700
2018-09-25T01:37:30.833Z,701
2018-09-25T01:38:38.036Z,701
2018-09-25T01:39:45.245Z,700
2018-09-25T01:40:52.451Z,701
2018-09-25T01:41:59.656Z,701
2018-09-25T01:43:06.855Z,701
2018-09-25T01:44:14.056Z,702
2018-09-25T01:45:21.259Z,703
2018-09-25T01:46:28.460Z,703
2018-09-25T01:47:35.664Z,704
2018-09-25T01:48:42.865Z,705
2018-09-25T01:49:50.064Z,705
2018-09-25T01:50:57.268Z,706
2018-09-25T01:52:04.467Z,707
2018-09-25T01:53:11.694Z,707
2018-09-25T01:54:18.898Z,706
2018-09-25T01:55:26.102Z,706
2018-09-25T01:56:33.316Z,706
2018-09-25T01:57:40.518Z,706
2018-09-25T01:58:47.719Z,707
2018-09-25T01:59:54.927Z,707
2018-09-25T02:01:02.136Z,708
2018-09-25T02:02:09.335Z,708
2018-09-25T02:03:16.542Z,708
2018-09-25T02:04:23.469Z,707
2018-09-25T02:05:30.681Z,709
2018-09-25T02:06:37.875Z,709
2018-09-25T02:07:44.807Z,709
2018-09-25T02:08:52.021Z,709
2018-09-25T02:09:58.944Z,709
2018-09-25T02:11:06.149Z,710
2018-09-25T02:12:13.356Z,708
2018-09-25T02:13:20.559Z,709
2018-09-25T02:14:27.758Z,709
2018-09-25T02:15:34.962Z,711
2018-09-25T02:16:42.162Z,711
2018-09-25T02:17:49.094Z,713
2018-09-25T02:18:56.292Z,711
2018-09-25T02:20:03.221Z,712
2018-09-25T02:21:10.435Z,712
2018-09-25T02:22:17.646Z,712
2018-09-25T02:23:24.577Z,713
2018-09-25T02:24:31.797Z,711
2018-09-25T02:25:38.995Z,712
2018-09-25T02:26:46.208Z,711
2018-09-25T02:27:52.867Z,713
2018-09-25T02:28:59.798Z,713
2018-09-25T02:30:06.719Z,713
2018-09-25T02:31:13.922Z,713
2018-09-25T02:32:20.854Z,713
2018-09-25T02:33:28.063Z,715
2018-09-25T02:34:34.990Z,714
2018-09-25T02:35:42.192Z,715
2018-09-25T02:36:49.397Z,715
2018-09-25T02:37:56.601Z,715
2018-09-25T02:39:03.808Z,716
2018-09-25T02:40:11.014Z,715
2018-09-25T02:41:18.216Z,714
2018-09-25T02:42:25.429Z,714
2018-09-25T02:43:32.629Z,714
2018-09-25T02:44:39.830Z,715
2018-09-25T02:45:47.031Z,714
2018-09-25T02:46:54.231Z,715
2018-09-25T02:48:01.435Z,715
2018-09-25T02:49:08.631Z,716
2018-09-25T02:50:15.832Z,716
2018-09-25T02:51:23.035Z,716
2018-09-25T02:52:30.236Z,717
2018-09-25T02:53:37.437Z,716
2018-09-25T02:54:44.643Z,717
2018-09-25T02:55:51.844Z,717
2018-09-25T02:56:59.048Z,717
2018-09-25T02:58:05.995Z,717
2018-09-25T02:59:13.194Z,717
2018-09-25T03:00:20.400Z,718
2018-09-25T03:01:27.617Z,717
2018-09-25T03:02:34.813Z,718
2018-09-25T03:03:42.016Z,718
2018-09-25T03:04:49.219Z,718
2018-09-25T03:05:56.424Z,718
2018-09-25T03:07:03.626Z,717
2018-09-25T03:08:10.832Z,718
2018-09-25T03:09:18.030Z,718
2018-09-25T03:10:25.233Z,718
2018-09-25T03:11:32.434Z,718
2018-09-25T03:12:39.359Z,718
2018-09-25T03:13:46.294Z,719
2018-09-25T03:14:53.501Z,719
2018-09-25T03:16:00.706Z,719
2018-09-25T03:17:07.635Z,718
2018-09-25T03:18:14.833Z,718
2018-09-25T03:19:22.281Z,719
2018-09-25T03:20:29.567Z,719
2018-09-25T03:21:36.766Z,718
2018-09-25T03:22:43.692Z,718
2018-09-25T03:23:51.168Z,719
2018-09-25T03:24:58.526Z,719
2018-09-25T03:26:05.729Z,720
2018-09-25T03:27:12.939Z,719
2018-09-25T03:28:19.912Z,718
2018-09-25T03:29:27.111Z,718
2018-09-25T03:30:34.313Z,717
2018-09-25T03:31:41.239Z,717
2018-09-25T03:32:48.436Z,717
2018-09-25T03:33:55.636Z,717
2018-09-25T03:35:02.893Z,717
2018-09-25T03:36:10.103Z,718
2018-09-25T03:37:17.338Z,717
2018-09-25T03:38:24.546Z,717
2018-09-25T03:39:31.750Z,717
2018-09-25T03:40:38.954Z,717
2018-09-25T03:41:46.160Z,717
2018-09-25T03:42:53.363Z,718
2018-09-25T03:44:00.563Z,718
2018-09-25T03:45:07.763Z,718
2018-09-25T03:46:14.970Z,717
2018-09-25T03:47:22.171Z,716
2018-09-25T03:48:29.376Z,716
2018-09-25T03:49:36.577Z,717
2018-09-25T03:50:43.780Z,718
2018-09-25T03:51:50.982Z,716
2018-09-25T03:52:58.187Z,716
2018-09-25T03:54:05.386Z,716
2018-09-25T03:55:12.591Z,717
2018-09-25T03:56:19.799Z,716
2018-09-25T03:57:26.735Z,716
2018-09-25T03:58:33.934Z,716
2018-09-25T03:59:41.461Z,715
2018-09-25T04:00:48.768Z,716
2018-09-25T04:01:55.979Z,715
2018-09-25T04:03:03.176Z,716
2018-09-25T04:04:10.377Z,716
2018-09-25T04:05:17.584Z,716
2018-09-25T04:06:24.791Z,716
2018-09-25T04:07:31.999Z,716
2018-09-25T04:08:39.198Z,717
2018-09-25T04:09:46.399Z,717
2018-09-25T04:10:53.606Z,715
2018-09-25T04:12:00.806Z,716
2018-09-25T04:13:08.024Z,715
2018-09-25T04:14:15.226Z,715
2018-09-25T04:15:22.425Z,717
2018-09-25T04:16:29.627Z,716
2018-09-25T04:17:36.833Z,716
2018-09-25T04:18:44.033Z,714
2018-09-25T04:19:51.237Z,715
2018-09-25T04:20:58.433Z,714
2018-09-25T04:22:05.638Z,714
2018-09-25T04:23:12.841Z,715
2018-09-25T04:24:20.041Z,715
2018-09-25T04:25:27.242Z,716
2018-09-25T04:26:34.445Z,716
2018-09-25T04:27:41.653Z,716
2018-09-25T04:28:48.857Z,716
2018-09-25T04:29:55.784Z,715
2018-09-25T04:31:02.984Z,715
2018-09-25T04:32:10.182Z,715
2018-09-25T04:33:17.389Z,715
2018-09-25T04:34:24.306Z,714
2018-09-25T04:35:31.511Z,716
2018-09-25T04:36:38.715Z,715
2018-09-25T04:37:45.920Z,714
2018-09-25T04:38:53.122Z,714
2018-09-25T04:40:00.315Z,712
2018-09-25T04:41:07.241Z,711
2018-09-25T04:42:14.175Z,711
2018-09-25T04:43:21.374Z,711
2018-09-25T04:44:28.580Z,712
2018-09-25T04:45:35.794Z,711
2018-09-25T04:46:42.991Z,711
2018-09-25T04:47:50.424Z,711
2018-09-25T04:48:57.765Z,711
2018-09-25T04:50:04.990Z,711
2018-09-25T04:51:12.219Z,710
2018-09-25T04:52:19.425Z,710
2018-09-25T04:53:26.628Z,712
2018-09-25T04:54:33.832Z,711
2018-09-25T04:55:41.046Z,712
2018-09-25T04:56:48.266Z,712
2018-09-25T04:57:55.467Z,712
2018-09-25T04:59:02.407Z,711
2018-09-25T05:00:09.601Z,712
2018-09-25T05:01:16.804Z,711
2018-09-25T05:02:23.463Z,711
2018-09-25T05:03:30.663Z,711
2018-09-25T05:04:37.912Z,711
2018-09-25T05:05:45.110Z,710
2018-09-25T05:06:52.315Z,710
2018-09-25T05:07:59.511Z,711
2018-09-25T05:09:06.708Z,708
2018-09-25T05:10:13.909Z,710
2018-09-25T05:11:20.561Z,709
2018-09-25T05:12:27.754Z,708
2018-09-25T05:13:34.963Z,708
2018-09-25T05:14:42.335Z,707
2018-09-25T05:15:49.642Z,708
2018-09-25T05:16:56.852Z,707
2018-09-25T05:18:04.150Z,706
2018-09-25T05:19:11.488Z,707
2018-09-25T05:20:18.692Z,707
2018-09-25T05:21:25.888Z,706
2018-09-25T05:22:33.096Z,704
2018-09-25T05:23:40.298Z,704
2018-09-25T05:24:47.559Z,704
2018-09-25T05:25:54.921Z,703
2018-09-25T05:27:01.849Z,705
2018-09-25T05:28:09.052Z,705
2018-09-25T05:29:16.252Z,705
2018-09-25T05:30:23.458Z,704
2018-09-25T05:31:30.662Z,704
2018-09-25T05:32:37.597Z,704
2018-09-25T05:33:44.527Z,704
2018-09-25T05:34:51.741Z,703
2018-09-25T05:35:58.960Z,705
2018-09-25T05:37:06.147Z,704
2018-09-25T05:38:13.347Z,704
2018-09-25T05:39:20.547Z,705
2018-09-25T05:40:27.749Z,704
2018-09-25T05:41:34.950Z,702
2018-09-25T05:42:42.154Z,701
2018-09-25T05:43:49.083Z,703
2018-09-25T05:44:56.283Z,700
2018-09-25T05:46:03.214Z,701
2018-09-25T05:47:10.414Z,701
2018-09-25T05:48:17.876Z,700
2018-09-25T05:49:25.252Z,701
2018-09-25T05:50:32.454Z,699
2018-09-25T05:51:39.656Z,698
2018-09-25T05:52:46.860Z,698
2018-09-25T05:53:54.096Z,697
2018-09-25T05:55:01.033Z,698
2018-09-25T05:56:08.246Z,697
2018-09-25T05:57:15.447Z,695
2018-09-25T05:58:22.651Z,696
2018-09-25T05:59:29.576Z,695
2018-09-25T06:00:36.780Z,695
2018-09-25T06:01:43.986Z,693
2018-09-25T06:02:51.187Z,694
2018-09-25T06:03:58.394Z,692
2018-09-25T06:05:05.597Z,691
2018-09-25T06:06:12.802Z,690
2018-09-25T06:07:20.001Z,691
2018-09-25T06:08:27.204Z,690
2018-09-25T06:09:34.476Z,690
2018-09-25T06:10:41.761Z,689
2018-09-25T06:11:48.962Z,688
2018-09-25T06:12:56.173Z,687
2018-09-25T06:14:03.369Z,687
2018-09-25T06:15:10.297Z,687
2018-09-25T06:16:17.508Z,685
2018-09-25T06:17:24.435Z,686
2018-09-25T06:18:31.702Z,684
2018-09-25T06:19:38.942Z,685
2018-09-25T06:20:46.162Z,683
2018-09-25T06:21:53.365Z,683
2018-09-25T06:23:00.782Z,682
2018-09-25T06:24:08.096Z,681
2018-09-25T06:25:15.293Z,680
2018-09-25T06:26:22.521Z,679
2018-09-25T06:27:29.721Z,678
2018-09-25T06:28:37.038Z,677
2018-09-25T06:29:44.263Z,677
2018-09-25T06:30:51.196Z,676
2018-09-25T06:31:58.400Z,676
2018-09-25T06:33:05.329Z,674
2018-09-25T06:34:12.530Z,676
2018-09-25T06:35:19.735Z,673
2018-09-25T06:36:26.936Z,674
2018-09-25T06:37:34.138Z,673
2018-09-25T06:38:41.447Z,672
2018-09-25T06:39:48.668Z,671
2018-09-25T06:40:55.952Z,670
2018-09-25T06:42:02.591Z,670
2018-09-25T06:43:09.799Z,669
2018-09-25T06:44:17.000Z,668
2018-09-25T06:45:24.202Z,668
2018-09-25T06:46:31.408Z,667
2018-09-25T06:47:38.610Z,666
2018-09-25T06:48:45.826Z,667
2018-09-25T06:49:53.025Z,665
2018-09-25T06:51:00.232Z,663
2018-09-25T06:52:07.434Z,664
2018-09-25T06:53:14.634Z,663
2018-09-25T06:54:21.839Z,663
2018-09-25T06:55:29.048Z,661
2018-09-25T06:56:35.978Z,661
2018-09-25T06:57:43.180Z,660
2018-09-25T06:58:50.391Z,660
2018-09-25T06:59:57.590Z,658
2018-09-25T07:01:04.910Z,659
2018-09-25T07:02:12.120Z,658
2018-09-25T07:03:19.341Z,657
2018-09-25T07:04:26.549Z,658
2018-09-25T07:05:33.750Z,655
2018-09-25T07:06:40.956Z,653
2018-09-25T07:07:48.162Z,650
2018-09-25T07:08:55.367Z,650
2018-09-25T07:10:03.489Z,647
2018-09-25T07:11:11.067Z,646
2018-09-25T07:12:18.271Z,646
2018-09-25T07:13:25.474Z,644
2018-09-25T07:14:32.427Z,645
2018-09-25T07:15:39.636Z,644
2018-09-25T07:16:46.838Z,642
2018-09-25T07:17:54.320Z,641
2018-09-25T07:19:01.563Z,641
2018-09-25T07:20:08.489Z,639
2018-09-25T07:21:15.698Z,640
2018-09-25T07:22:22.904Z,638
2018-09-25T07:23:30.108Z,637
2018-09-25T07:24:37.543Z,637
2018-09-25T07:25:45.066Z,636
2018-09-25T07:26:51.995Z,636
2018-09-25T07:27:59.211Z,633
2018-09-25T07:29:06.413Z,633
2018-09-25T07:30:13.623Z,637
2018-09-25T07:31:20.830Z,635
2018-09-25T07:32:28.036Z,634
2018-09-25T07:33:35.242Z,633
2018-09-25T07:34:42.443Z,631
2018-09-25T07:35:49.371Z,629
2018-09-25T07:36:56.305Z,628
2018-09-25T07:38:03.508Z,626
2018-09-25T07:39:10.440Z,626
2018-09-25T07:40:17.360Z,622
2018-09-25T07:41:24.015Z,619
2018-09-25T07:42:30.677Z,617
2018-09-25T07:43:37.605Z,614
2018-09-25T07:44:44.820Z,612
2018-09-25T07:45:51.472Z,613
2018-09-25T07:46:58.675Z,615
2018-09-25T07:48:06.099Z,614
2018-09-25T07:49:13.381Z,607
2018-09-25T07:50:20.588Z,603
2018-09-25T07:51:27.793Z,606
2018-09-25T07:52:35.001Z,602
2018-09-25T07:53:41.652Z,600
2018-09-25T07:54:48.858Z,596
2018-09-25T07:55:56.060Z,595
2018-09-25T07:57:03.264Z,591
2018-09-25T07:58:10.476Z,590
2018-09-25T07:59:17.683Z,589
2018-09-25T08:00:24.884Z,587
2018-09-25T08:01:32.097Z,587
2018-09-25T08:02:39.036Z,587
2018-09-25T08:03:46.242Z,585
2018-09-25T08:04:53.451Z,583
2018-09-25T08:06:00.659Z,582
2018-09-25T08:07:07.867Z,579
2018-09-25T08:08:15.077Z,580
2018-09-25T08:09:22.285Z,579
2018-09-25T08:10:29.541Z,578
2018-09-25T08:11:36.755Z,575
2018-09-25T08:12:43.963Z,573
2018-09-25T08:13:51.168Z,570
2018-09-25T08:14:58.376Z,568
2018-09-25T08:16:05.332Z,566
2018-09-25T08:17:12.538Z,561
2018-09-25T08:18:19.745Z,560
2018-09-25T08:19:26.953Z,560
2018-09-25T08:20:34.162Z,559
2018-09-25T08:21:41.368Z,559
2018-09-25T08:22:48.577Z,559
2018-09-25T08:23:55.784Z,560
2018-09-25T08:25:02.716Z,560
2018-09-25T08:26:09.926Z,559
2018-09-25T08:27:17.139Z,560
2018-09-25T08:28:24.347Z,559
2018-09-25T08:29:31.613Z,560
2018-09-25T08:30:38.812Z,561
2018-09-25T08:31:46.017Z,561
2018-09-25T08:32:52.943Z,561
2018-09-25T08:33:59.878Z,561
2018-09-25T08:35:07.351Z,562
2018-09-25T08:36:14.716Z,561
2018-09-25T08:37:21.924Z,561
2018-09-25T08:38:29.377Z,562
2018-09-25T08:39:37.137Z,561
2018-09-25T08:40:44.546Z,561
2018-09-25T08:41:51.753Z,564
2018-09-25T08:42:58.969Z,565
2018-09-25T08:44:06.181Z,565
2018-09-25T08:45:13.392Z,565
2018-09-25T08:46:20.610Z,565
2018-09-25T08:47:27.816Z,563
2018-09-25T08:48:35.023Z,562
2018-09-25T08:49:42.233Z,562
2018-09-25T08:50:49.173Z,564
2018-09-25T08:51:56.383Z,563
2018-09-25T08:53:03.599Z,562
2018-09-25T08:54:10.808Z,563
2018-09-25T08:55:18.015Z,563
2018-09-25T08:56:25.225Z,565
2018-09-25T08:57:32.439Z,564
2018-09-25T08:58:39.377Z,561
2018-09-25T08:59:46.580Z,562
2018-09-25T09:00:53.967Z,563
2018-09-25T09:02:01.259Z,564
2018-09-25T09:03:08.193Z,566
2018-09-25T09:04:15.125Z,568
2018-09-25T09:05:22.331Z,568
2018-09-25T09:06:29.543Z,568
2018-09-25T09:07:36.475Z,567
2018-09-25T09:08:43.686Z,565
2018-09-25T09:09:50.618Z,563
2018-09-25T09:10:57.833Z,562
2018-09-25T09:12:05.033Z,561
2018-09-25T09:13:12.249Z,563
2018-09-25T09:14:19.450Z,566
2018-09-25T09:15:26.663Z,567
2018-09-25T09:16:33.870Z,567
2018-09-25T09:17:41.074Z,565
2018-09-25T09:18:48.291Z,563
2018-09-25T09:19:55.319Z,563
2018-09-25T09:21:02.608Z,564
2018-09-25T09:22:09.819Z,565
2018-09-25T09:23:17.032Z,566
2018-09-25T09:24:24.247Z,567
2018-09-25T09:25:31.185Z,566
2018-09-25T09:26:38.396Z,565
2018-09-25T09:27:45.608Z,566
2018-09-25T09:28:52.816Z,567
2018-09-25T09:30:00.030Z,567
2018-09-25T09:31:07.239Z,569
2018-09-25T09:32:14.444Z,568
2018-09-25T09:33:21.649Z,569
2018-09-25T09:34:28.857Z,569
2018-09-25T09:35:36.073Z,569
2018-09-25T09:36:43.277Z,568
2018-09-25T09:37:50.486Z,569
2018-09-25T09:38:57.419Z,570
2018-09-25T09:40:04.630Z,570
2018-09-25T09:41:12.372Z,570
2018-09-25T09:42:19.681Z,571
2018-09-25T09:43:26.893Z,571
2018-09-25T09:44:34.102Z,570
2018-09-25T09:45:41.330Z,568
2018-09-25T09:46:48.536Z,567
2018-09-25T09:47:55.480Z,565
2018-09-25T09:49:02.688Z,563
2018-09-25T09:50:09.621Z,561
2018-09-25T09:51:16.829Z,559
2018-09-25T09:52:24.035Z,560
2018-09-25T09:53:31.245Z,561
2018-09-25T09:54:38.176Z,561
2018-09-25T09:55:45.387Z,563
2018-09-25T09:56:52.608Z,565
2018-09-25T09:57:59.816Z,567
2018-09-25T09:59:07.023Z,568
2018-09-25T10:00:14.230Z,567
2018-09-25T10:01:21.440Z,564
2018-09-25T10:02:28.647Z,564
2018-09-25T10:03:35.855Z,565
2018-09-25T10:04:43.060Z,566
2018-09-25T10:05:50.005Z,567
2018-09-25T10:06:57.728Z,567
2018-09-25T10:08:05.074Z,567
2018-09-25T10:09:11.732Z,566
2018-09-25T10:10:18.944Z,566
2018-09-25T10:11:26.149Z,566
2018-09-25T10:12:33.686Z,566
2018-09-25T10:13:41.107Z,562
2018-09-25T10:14:48.314Z,546
2018-09-25T10:15:55.553Z,538
2018-09-25T10:17:02.765Z,543
2018-09-25T10:18:09.701Z,550
2018-09-25T10:19:16.908Z,554
2018-09-25T10:20:23.844Z,556
2018-09-25T10:21:31.049Z,558
2018-09-25T10:22:37.990Z,558
2018-09-25T10:23:45.199Z,545
2018-09-25T10:24:52.408Z,545
2018-09-25T10:25:59.618Z,549
2018-09-25T10:27:06.559Z,547
2018-09-25T10:28:13.507Z,553
2018-09-25T10:29:20.442Z,543
2018-09-25T10:30:27.372Z,546
2018-09-25T10:31:34.581Z,553
2018-09-25T10:32:41.797Z,558
2018-09-25T10:33:49.130Z,561
2018-09-25T10:34:56.345Z,563
2018-09-25T10:36:03.550Z,564
2018-09-25T10:37:10.756Z,550
2018-09-25T10:38:17.966Z,540
2018-09-25T10:39:24.906Z,536
2018-09-25T10:40:32.124Z,527
2018-09-25T10:41:39.053Z,525
2018-09-25T10:42:46.262Z,522
2018-09-25T10:43:53.466Z,522
2018-09-25T10:45:00.676Z,525
2018-09-25T10:46:07.884Z,521
2018-09-25T10:47:15.098Z,531
2018-09-25T10:48:22.307Z,528
2018-09-25T10:49:29.512Z,521
2018-09-25T10:50:36.724Z,513
2018-09-25T10:51:43.941Z,513
2018-09-25T10:52:51.149Z,520
2018-09-25T10:53:58.359Z,535
2018-09-25T10:55:05.600Z,535
2018-09-25T10:56:13.421Z,539
2018-09-25T10:57:20.900Z,543
2018-09-25T10:58:28.109Z,550
2018-09-25T10:59:34.770Z,554
2018-09-25T11:00:41.977Z,555
2018-09-25T11:01:49.189Z,557
2018-09-25T11:02:56.844Z,557
2018-09-25T11:04:04.190Z,560
2018-09-25T11:05:11.123Z,561
2018-09-25T11:06:18.064Z,561
2018-09-25T11:07:25.266Z,564
2018-09-25T11:08:32.478Z,563
2018-09-25T11:09:39.687Z,563
2018-09-25T11:10:46.903Z,563
2018-09-25T11:11:54.123Z,565
2018-09-25T11:13:01.333Z,564
2018-09-25T11:14:08.542Z,566
2018-09-25T11:15:15.751Z,564
2018-09-25T11:16:22.960Z,564
2018-09-25T11:17:30.182Z,567
2018-09-25T11:18:37.389Z,565
2018-09-25T11:19:44.608Z,564
2018-09-25T11:20:51.833Z,564
2018-09-25T11:21:59.040Z,555
2018-09-25T11:23:06.252Z,535
2018-09-25T11:24:13.458Z,522
2018-09-25T11:25:20.724Z,510
2018-09-25T11:26:27.710Z,511
2018-09-25T11:27:34.683Z,510
2018-09-25T11:28:41.893Z,504
2018-09-25T11:29:49.101Z,502
2018-09-25T11:30:56.308Z,509
2018-09-25T11:32:03.248Z,514
2018-09-25T11:33:10.456Z,512
2018-09-25T11:34:17.662Z,512
2018-09-25T11:35:25.203Z,515
2018-09-25T11:36:32.720Z,530
2018-09-25T11:37:39.933Z,541
2018-09-25T11:38:47.150Z,547
2018-09-25T11:39:54.360Z,550
2018-09-25T11:41:01.895Z,551
2018-09-25T11:42:09.412Z,551
2018-09-25T11:43:16.350Z,550
2018-09-25T11:44:23.560Z,553
2018-09-25T11:45:30.770Z,556
2018-09-25T11:46:38.081Z,547
2018-09-25T11:47:45.339Z,528
2018-09-25T11:48:52.557Z,534
2018-09-25T11:50:00.169Z,539
2018-09-25T11:51:07.563Z,542
2018-09-25T11:52:14.771Z,543
2018-09-25T11:53:21.983Z,538
2018-09-25T11:54:28.652Z,527
2018-09-25T11:55:35.859Z,507
2018-09-25T11:56:43.080Z,495
2018-09-25T11:57:50.299Z,492
2018-09-25T11:58:57.508Z,489
2018-09-25T12:00:04.724Z,491
2018-09-25T12:01:11.932Z,496
2018-09-25T12:02:19.522Z,516
2018-09-25T12:03:26.808Z,530
2018-09-25T12:04:34.191Z,520
2018-09-25T12:05:41.501Z,509
2018-09-25T12:06:48.724Z,500
2018-09-25T12:07:55.937Z,504
2018-09-25T12:09:03.147Z,496
2018-09-25T12:10:10.085Z,498
2018-09-25T12:11:17.028Z,519
2018-09-25T12:12:23.679Z,517
2018-09-25T12:13:30.619Z,508
2018-09-25T12:14:37.556Z,510
2018-09-25T12:15:44.781Z,509
2018-09-25T12:16:51.748Z,504
2018-09-25T12:17:59.014Z,500
2018-09-25T12:19:06.214Z,502
2018-09-25T12:20:13.449Z,507
2018-09-25T12:21:20.660Z,502
2018-09-25T12:22:27.872Z,497
2018-09-25T12:23:35.224Z,492
2018-09-25T12:24:42.524Z,488
2018-09-25T12:25:49.737Z,485
2018-09-25T12:26:56.958Z,481
2018-09-25T12:28:03.902Z,479
2018-09-25T12:29:11.114Z,477
2018-09-25T12:30:18.046Z,479
2018-09-25T12:31:24.979Z,495
2018-09-25T12:32:32.417Z,507
2018-09-25T12:33:39.847Z,518
2018-09-25T12:34:47.105Z,528
2018-09-25T12:35:54.321Z,535
2018-09-25T12:37:01.536Z,544
2018-09-25T12:38:08.750Z,545
2018-09-25T12:39:15.971Z,547
2018-09-25T12:40:23.190Z,546
2018-09-25T12:41:30.178Z,547
2018-09-25T12:42:37.393Z,550
2018-09-25T12:43:44.604Z,550
2018-09-25T12:44:51.815Z,548
2018-09-25T12:45:59.029Z,547
2018-09-25T12:47:06.243Z,546
2018-09-25T12:48:13.192Z,547
2018-09-25T12:49:20.416Z,548
2018-09-25T12:50:27.629Z,548
2018-09-25T12:51:34.841Z,548
2018-09-25T12:52:42.073Z,549
2018-09-25T12:53:49.307Z,543
2018-09-25T12:54:56.538Z,543
2018-09-25T12:56:03.482Z,543
2018-09-25T12:57:10.425Z,544
2018-09-25T12:58:17.377Z,540
2018-09-25T12:59:24.317Z,522
2018-09-25T13:00:31.258Z,511
2018-09-25T13:01:38.476Z,505
2018-09-25T13:02:45.697Z,504
2018-09-25T13:03:53.019Z,492
2018-09-25T13:04:59.985Z,496
2018-09-25T13:06:07.201Z,498
2018-09-25T13:07:14.413Z,492
2018-09-25T13:08:21.635Z,490
2018-09-25T13:09:28.940Z,493
2018-09-25T13:10:36.195Z,500
2018-09-25T13:11:43.413Z,494
2018-09-25T13:12:50.625Z,505
2018-09-25T13:13:57.836Z,496
2018-09-25T13:15:05.043Z,506
2018-09-25T13:16:11.980Z,522
2018-09-25T13:17:33.917Z,524
2018-09-25T13:18:41.132Z,535
2018-09-25T13:19:48.345Z,538
2018-09-25T13:20:55.560Z,537
2018-09-25T13:22:02.777Z,540
2018-09-25T13:23:09.990Z,544
2018-09-25T13:24:16.926Z,549
2018-09-25T13:25:24.150Z,547
2018-09-25T13:26:31.358Z,541
2018-09-25T13:27:38.299Z,540
2018-09-25T13:28:45.530Z,539
2018-09-25T13:29:52.744Z,539
2018-09-25T13:30:59.960Z,540
2018-09-25T13:32:07.174Z,540
2018-09-25T13:33:14.489Z,540
2018-09-25T13:34:21.461Z,539
2018-09-25T13:35:28.677Z,531
2018-09-25T13:36:35.896Z,507
2018-09-25T13:37:43.109Z,502
2018-09-25T13:38:50.325Z,497
2018-09-25T13:39:57.543Z,493
2018-09-25T13:41:04.754Z,493
2018-09-25T13:42:11.966Z,490
2018-09-25T13:43:19.179Z,494
2018-09-25T13:44:26.399Z,498
2018-09-25T13:45:33.618Z,495
2018-09-25T13:46:40.829Z,492
2018-09-25T13:47:48.046Z,490
2018-09-25T13:48:55.256Z,488
2018-09-25T13:50:02.476Z,485
2018-09-25T13:51:09.694Z,494
2018-09-25T13:52:16.905Z,510
2018-09-25T13:53:24.125Z,501
2018-09-25T13:54:31.339Z,504
2018-09-25T13:55:38.553Z,506
2018-09-25T13:56:45.805Z,510
2018-09-25T13:57:52.743Z,503
2018-09-25T13:58:59.956Z,496
2018-09-25T14:00:07.172Z,488
2018-09-25T14:01:14.392Z,489
2018-09-25T14:02:21.607Z,507
2018-09-25T14:03:29.009Z,515
2018-09-25T14:04:36.355Z,530
2018-09-25T14:05:43.574Z,546
2018-09-25T14:06:50.237Z,551
2018-09-25T14:07:57.451Z,555
2018-09-25T14:09:04.672Z,558
2018-09-25T14:10:11.887Z,559
2018-09-25T14:11:19.100Z,559
2018-09-25T14:12:26.318Z,559
2018-09-25T14:13:33.529Z,562
2018-09-25T14:14:40.760Z,561
2018-09-25T14:15:47.975Z,561
2018-09-25T14:16:55.197Z,561
2018-09-25T14:18:02.412Z,563
2018-09-25T14:19:09.630Z,565
2018-09-25T14:20:16.840Z,566
2018-09-25T14:21:24.214Z,565
2018-09-25T14:22:31.425Z,564
2018-09-25T14:23:38.635Z,547
2018-09-25T14:24:46.084Z,529
2018-09-25T14:25:53.438Z,518
2018-09-25T14:27:00.655Z,515
2018-09-25T14:28:07.893Z,518
2018-09-25T14:29:14.857Z,516
2018-09-25T14:30:22.069Z,512
2018-09-25T14:31:29.281Z,507
2018-09-25T14:32:36.497Z,506
2018-09-25T14:33:43.435Z,512
2018-09-25T14:34:50.278Z,517
2018-09-25T14:35:57.657Z,514
2018-09-25T14:37:04.872Z,516
2018-09-25T14:38:12.085Z,513
2018-09-25T14:39:19.301Z,511
2018-09-25T14:40:26.511Z,508
2018-09-25T14:41:33.817Z,506
2018-09-25T14:42:41.091Z,507
2018-09-25T14:43:48.311Z,508
2018-09-25T14:44:55.531Z,506
2018-09-25T14:46:02.740Z,506
2018-09-25T14:47:09.955Z,514
2018-09-25T14:48:16.896Z,508
2018-09-25T14:49:24.112Z,505
2018-09-25T14:50:31.057Z,511
2018-09-25T14:51:38.274Z,507
2018-09-25T14:52:45.484Z,501
2018-09-25T14:53:52.697Z,498
2018-09-25T14:54:59.913Z,500
2018-09-25T14:56:06.859Z,507
2018-09-25T14:57:14.072Z,501
2018-09-25T14:58:21.287Z,502
2018-09-25T14:59:28.496Z,501
2018-09-25T15:00:35.439Z,501
2018-09-25T15:01:42.400Z,500
2018-09-25T15:02:49.622Z,497
2018-09-25T15:03:56.838Z,496
2018-09-25T15:05:04.055Z,497
2018-09-25T15:06:11.267Z,501
2018-09-25T15:07:18.606Z,504
2018-09-25T15:08:25.594Z,500
2018-09-25T15:09:32.807Z,503
2018-09-25T15:10:40.156Z,500
2018-09-25T15:11:47.200Z,503
2018-09-25T15:12:54.418Z,515
2018-09-25T15:14:01.399Z,511
2018-09-25T15:15:08.618Z,507
2018-09-25T15:16:15.836Z,510
2018-09-25T15:17:23.047Z,511
2018-09-25T15:18:30.026Z,510
2018-09-25T15:19:37.245Z,509
2018-09-25T15:20:44.460Z,517
2018-09-25T15:21:52.765Z,517
2018-09-25T15:23:00.558Z,518
2018-09-25T15:24:07.771Z,519
2018-09-25T15:25:14.987Z,521